Time;durP1;ratioP1;P1;durP2;ratioP2;P2;SDS_P1;SDS_P2;PMS_P1;PMS_P2;Temp;Humidity;BMP_temperature;BMP_pressure;BME280_temperature;BME280_humidity;BME280_pressure;Samples;Min_cycle;Max_cycle;Signal;HPM_P1;HPM_P2
2021/05/21 00:01:00;;;;;;;3.97;2.92;;;10.40;99.90;;;;;;5032536;28;20056;-68
2021/05/21 00:03:27;;;;;;;4.50;2.92;;;10.50;99.90;;;;;;5032393;28;20073;-68
2021/05/21 00:05:53;;;;;;;4.85;3.42;;;10.60;99.90;;;;;;5032748;28;20083;-69
2021/05/21 00:08:19;;;;;;;5.78;3.13;;;10.50;99.90;;;;;;5032481;28;20056;-68
2021/05/21 00:10:45;;;;;;;2.85;2.55;;;10.40;99.90;;;;;;5032481;28;20045;-70
2021/05/21 00:13:11;;;;;;;5.70;3.67;;;10.40;99.90;;;;;;5032314;28;20073;-69
2021/05/21 00:15:38;;;;;;;3.67;3.38;;;10.50;99.90;;;;;;5032201;28;20046;-69
2021/05/21 00:18:05;;;;;;;3.25;3.05;;;10.50;99.90;;;;;;5032611;28;20069;-69
2021/05/21 00:20:31;;;;;;;4.15;3.53;;;10.40;99.90;;;;;;5032750;28;20494;-69
2021/05/21 00:22:57;;;;;;;2.95;2.63;;;10.50;99.90;;;;;;5032665;28;20073;-69
2021/05/21 00:25:23;;;;;;;3.67;3.38;;;10.50;99.90;;;;;;5035833;28;20041;-69
2021/05/21 00:27:49;;;;;;;4.53;3.70;;;10.50;99.90;;;;;;5036837;28;20049;-69
2021/05/21 00:30:16;;;;;;;4.30;3.92;;;10.70;99.90;;;;;;5036714;28;20041;-69
2021/05/21 00:32:43;;;;;;;6.80;5.18;;;10.70;99.90;;;;;;5036105;28;20073;-69
2021/05/21 00:35:10;;;;;;;5.95;4.28;;;10.60;99.90;;;;;;5036442;28;20045;-69
2021/05/21 00:37:36;;;;;;;3.58;3.28;;;10.60;99.90;;;;;;5035526;28;20049;-69
2021/05/21 00:40:02;;;;;;;4.18;3.78;;;10.60;99.90;;;;;;5036018;28;20045;-69
2021/05/21 00:42:29;;;;;;;4.18;3.78;;;10.60;99.90;;;;;;5036228;28;20446;-69
2021/05/21 00:44:56;;;;;;;3.58;3.28;;;10.60;99.90;;;;;;5036112;28;20045;-69
2021/05/21 00:47:22;;;;;;;3.75;3.45;;;10.60;99.90;;;;;;5035005;28;20100;-69
2021/05/21 00:49:49;;;;;;;3.92;3.63;;;10.60;99.90;;;;;;5035338;28;20132;-69
2021/05/21 00:52:17;;;;;;;5.50;3.13;;;10.70;99.90;;;;;;5035606;28;20497;-68
2021/05/21 00:54:43;;;;;;;4.15;3.75;;;10.80;99.90;;;;;;5035270;28;20080;-69
2021/05/21 00:57:10;;;;;;;6.03;3.90;;;10.70;99.90;;;;;;5035277;28;20088;-70
2021/05/21 00:59:36;;;;;;;3.50;3.20;;;10.70;99.90;;;;;;5035152;28;20547;-69
2021/05/21 01:02:03;;;;;;;3.53;3.22;;;10.60;99.90;;;;;;5035225;28;20054;-69
2021/05/21 01:04:29;;;;;;;3.95;3.55;;;10.70;99.90;;;;;;5034949;28;20076;-69
2021/05/21 01:06:56;;;;;;;4.03;3.50;;;10.70;99.90;;;;;;5034652;28;20081;-68
2021/05/21 01:09:22;;;;;;;4.35;3.40;;;10.80;99.90;;;;;;5034965;28;20076;-68
2021/05/21 01:11:48;;;;;;;4.28;3.17;;;10.80;99.90;;;;;;5035133;28;20050;-69
2021/05/21 01:14:14;;;;;;;4.05;3.47;;;10.80;99.90;;;;;;5035239;28;20054;-69
2021/05/21 01:16:40;;;;;;;3.72;3.35;;;10.80;99.90;;;;;;5034897;28;20489;-69
2021/05/21 01:19:06;;;;;;;6.80;4.15;;;10.80;99.90;;;;;;5035299;28;20069;-68
2021/05/21 01:21:35;;;;;;;3.65;3.35;;;10.80;99.90;;;;;;5035220;28;20053;-68
2021/05/21 01:24:01;;;;;;;3.72;3.42;;;10.90;99.90;;;;;;5035207;28;20049;-68
2021/05/21 01:26:29;;;;;;;4.30;3.17;;;10.90;99.90;;;;;;5034665;28;20077;-69
2021/05/21 01:28:55;;;;;;;3.20;2.83;;;10.80;99.90;;;;;;5034717;28;20045;-69
2021/05/21 01:31:22;;;;;;;4.60;3.42;;;10.80;99.90;;;;;;5034898;28;20049;-69
2021/05/21 01:33:49;;;;;;;3.53;2.95;;;10.90;99.90;;;;;;5034809;28;20473;-69
2021/05/21 01:36:15;;;;;;;3.85;3.55;;;10.80;99.90;;;;;;5033285;28;20069;-69
2021/05/21 01:38:55;;;;;;;4.07;3.72;;;10.80;99.90;;;;;;5034592;28;20473;-69
2021/05/21 01:41:21;;;;;;;3.40;3.10;;;10.80;99.90;;;;;;5034941;28;20076;-69
2021/05/21 01:43:47;;;;;;;3.28;2.97;;;10.80;99.90;;;;;;5034845;28;20430;-69
2021/05/21 01:46:14;;;;;;;3.45;3.03;;;10.80;99.90;;;;;;5033951;28;20493;-69
2021/05/21 01:48:40;;;;;;;3.55;3.13;;;10.80;99.90;;;;;;5034272;28;20077;-69
2021/05/21 01:51:06;;;;;;;3.13;2.83;;;10.70;99.90;;;;;;5033950;28;20081;-69
2021/05/21 01:53:34;;;;;;;3.20;2.90;;;10.80;99.90;;;;;;5034654;28;20470;-69
2021/05/21 01:56:01;;;;;;;3.58;3.15;;;10.70;99.90;;;;;;5033994;28;20041;-70
2021/05/21 01:58:27;;;;;;;3.70;3.28;;;10.70;99.90;;;;;;5033287;28;20095;-69
2021/05/21 02:00:53;;;;;;;6.00;4.75;;;10.70;99.90;;;;;;5033936;28;20470;-69
2021/05/21 02:03:19;;;;;;;4.03;3.20;;;10.60;99.90;;;;;;5034331;28;20084;-69
2021/05/21 02:05:45;;;;;;;4.13;3.83;;;10.60;99.90;;;;;;5034096;28;20080;-69
2021/05/21 02:08:11;;;;;;;4.10;3.63;;;10.70;99.90;;;;;;5034231;28;20045;-69
2021/05/21 02:10:37;;;;;;;4.85;4.20;;;10.60;99.90;;;;;;5034287;28;20045;-68
2021/05/21 02:13:04;;;;;;;3.65;3.35;;;10.70;99.90;;;;;;5034361;28;20080;-69
2021/05/21 02:15:30;;;;;;;4.05;3.15;;;10.70;99.90;;;;;;5033969;28;20069;-69
2021/05/21 02:17:56;;;;;;;4.38;3.97;;;10.70;99.90;;;;;;5034250;28;20045;-69
2021/05/21 02:20:22;;;;;;;4.63;3.95;;;10.60;99.90;;;;;;5034011;28;20041;-69
2021/05/21 02:22:48;;;;;;;3.83;3.53;;;10.50;99.90;;;;;;5034005;28;20054;-69
2021/05/21 02:25:15;;;;;;;7.68;5.07;;;10.50;99.90;;;;;;5033899;28;20077;-69
2021/05/21 02:27:42;;;;;;;5.50;3.20;;;10.60;99.90;;;;;;5033465;28;20053;-69
2021/05/21 02:30:10;;;;;;;4.70;3.25;;;10.60;99.90;;;;;;5034035;28;20073;-70
2021/05/21 02:32:36;;;;;;;6.90;3.45;;;10.60;99.90;;;;;;5041391;28;20060;-69
2021/05/21 02:35:03;;;;;;;10.07;6.60;;;10.60;99.90;;;;;;5035934;28;20081;-69
2021/05/21 02:37:29;;;;;;;3.92;2.92;;;10.70;99.90;;;;;;5034015;28;20501;-69
2021/05/21 02:39:55;;;;;;;4.68;3.88;;;10.70;99.90;;;;;;5034204;28;20069;-69
2021/05/21 02:42:21;;;;;;;6.67;4.83;;;10.70;99.90;;;;;;5033800;28;20069;-68
2021/05/21 02:44:47;;;;;;;8.18;5.40;;;10.60;99.90;;;;;;5032674;28;20069;-70
2021/05/21 02:47:14;;;;;;;4.70;3.92;;;10.60;99.90;;;;;;5031882;28;20081;-69
2021/05/21 02:49:40;;;;;;;6.38;4.55;;;10.60;99.90;;;;;;5033197;28;20444;-68
2021/05/21 02:52:06;;;;;;;3.83;3.50;;;10.60;99.90;;;;;;5033491;28;20073;-69
2021/05/21 02:54:32;;;;;;;4.05;3.65;;;10.60;99.90;;;;;;5033370;28;20088;-68
2021/05/21 02:56:59;;;;;;;4.63;2.85;;;10.60;99.90;;;;;;5033112;28;20085;-68
2021/05/21 02:59:25;;;;;;;5.47;4.35;;;10.60;99.90;;;;;;5033186;28;20069;-69
2021/05/21 03:01:51;;;;;;;6.50;4.35;;;10.60;99.90;;;;;;5033055;28;20048;-68
2021/05/21 03:04:17;;;;;;;3.17;2.60;;;10.50;99.90;;;;;;5033347;28;20072;-68
2021/05/21 03:06:43;;;;;;;9.45;7.25;;;10.60;99.90;;;;;;5032555;28;20049;-69
2021/05/21 03:09:09;;;;;;;6.22;4.32;;;10.60;99.90;;;;;;5033098;28;20566;-69
2021/05/21 03:11:36;;;;;;;4.57;3.65;;;10.50;99.90;;;;;;5033158;28;20084;-69
2021/05/21 03:14:02;;;;;;;3.75;3.25;;;10.50;99.90;;;;;;5032630;28;20073;-69
2021/05/21 03:16:28;;;;;;;3.83;3.35;;;10.50;99.90;;;;;;5032920;28;20076;-69
2021/05/21 03:18:54;;;;;;;3.20;2.90;;;10.50;99.90;;;;;;5032994;28;20045;-69
2021/05/21 03:21:21;;;;;;;6.05;4.28;;;10.50;99.90;;;;;;5032974;28;20068;-69
2021/05/21 03:23:47;;;;;;;4.63;3.42;;;10.50;99.90;;;;;;5032783;28;20465;-69
2021/05/21 03:26:13;;;;;;;4.18;3.47;;;10.50;99.90;;;;;;5032411;28;20140;-69
2021/05/21 03:28:40;;;;;;;5.97;4.63;;;10.60;99.90;;;;;;5032434;28;20079;-69
2021/05/21 03:31:07;;;;;;;3.80;3.22;;;10.60;99.90;;;;;;5032760;28;20103;-69
2021/05/21 03:33:33;;;;;;;4.30;3.05;;;10.60;99.90;;;;;;5032509;28;20076;-69
2021/05/21 03:35:59;;;;;;;6.30;4.03;;;10.60;99.90;;;;;;5031744;28;20088;-73
2021/05/21 03:38:27;;;;;;;4.60;3.75;;;10.60;99.90;;;;;;5032957;28;20041;-75
2021/05/21 03:40:54;;;;;;;3.42;3.05;;;10.70;99.90;;;;;;5031858;28;20045;-75
2021/05/21 03:43:20;;;;;;;5.03;2.92;;;10.60;99.90;;;;;;5028814;28;20049;-70
2021/05/21 03:45:46;;;;;;;3.13;2.83;;;10.70;99.90;;;;;;5032730;28;20045;-74
2021/05/21 03:48:13;;;;;;;4.20;2.83;;;10.80;99.90;;;;;;5033027;28;20068;-73
2021/05/21 03:50:39;;;;;;;3.95;3.53;;;10.80;99.90;;;;;;5032112;28;20053;-71
2021/05/21 03:53:05;;;;;;;3.17;2.80;;;10.80;99.90;;;;;;5032004;28;20049;-72
2021/05/21 03:55:32;;;;;;;2.85;2.47;;;10.90;99.90;;;;;;5031448;28;20073;-73
2021/05/21 03:58:00;;;;;;;5.32;3.45;;;10.90;99.90;;;;;;5031261;28;20056;-73
2021/05/21 04:00:26;;;;;;;3.05;2.70;;;10.90;99.90;;;;;;5031955;28;20179;-73
2021/05/21 04:02:53;;;;;;;4.68;2.70;;;11.00;99.90;;;;;;5031919;28;20509;-74
2021/05/21 04:05:20;;;;;;;4.32;3.03;;;11.00;99.90;;;;;;5031759;28;20493;-74
2021/05/21 04:07:48;;;;;;;5.30;2.83;;;11.10;99.90;;;;;;5031879;28;20504;-72
2021/05/21 04:10:15;;;;;;;3.13;2.80;;;11.10;99.90;;;;;;5031824;28;20049;-74
2021/05/21 04:12:42;;;;;;;2.80;2.50;;;11.10;99.90;;;;;;5031926;28;20489;-72
2021/05/21 04:15:09;;;;;;;2.80;2.60;;;11.10;99.90;;;;;;5032155;28;20065;-73
2021/05/21 04:17:35;;;;;;;3.17;2.85;;;11.10;99.90;;;;;;5032080;28;20049;-71
2021/05/21 04:20:02;;;;;;;4.38;2.95;;;11.10;99.90;;;;;;5032400;28;20555;-72
2021/05/21 04:22:28;;;;;;;3.78;3.33;;;11.10;99.90;;;;;;5032401;28;20073;-75
2021/05/21 04:24:54;;;;;;;3.00;2.30;;;11.20;99.90;;;;;;5032493;28;20501;-74
2021/05/21 04:27:20;;;;;;;3.05;2.75;;;11.20;99.90;;;;;;5032356;28;20077;-75
2021/05/21 04:29:47;;;;;;;4.25;3.00;;;11.20;99.90;;;;;;5032606;28;20049;-72
2021/05/21 04:32:13;;;;;;;3.40;3.10;;;11.10;99.90;;;;;;5032290;28;20441;-72
2021/05/21 04:34:41;;;;;;;2.80;2.60;;;11.20;99.90;;;;;;5031804;28;20127;-75
2021/05/21 04:37:07;;;;;;;3.40;2.72;;;11.20;99.90;;;;;;5031841;28;20069;-70
2021/05/21 04:39:33;;;;;;;3.28;2.78;;;11.20;99.90;;;;;;5031957;28;20065;-71
2021/05/21 04:42:00;;;;;;;3.83;3.08;;;11.20;99.90;;;;;;5032318;28;20453;-71
2021/05/21 04:44:26;;;;;;;3.08;2.63;;;11.30;99.90;;;;;;5031501;28;20048;-71
2021/05/21 04:46:53;;;;;;;3.15;2.85;;;11.30;99.90;;;;;;5031081;28;20045;-72
2021/05/21 04:49:32;;;;;;;4.28;2.90;;;11.40;99.90;;;;;;5031416;28;20050;-74
2021/05/21 04:51:59;;;;;;;3.22;2.90;;;11.50;99.90;;;;;;5031666;28;20050;-73
2021/05/21 04:54:25;;;;;;;2.70;2.40;;;11.60;99.90;;;;;;5031259;28;20042;-71
2021/05/21 04:56:52;;;;;;;3.47;2.85;;;11.70;99.90;;;;;;5032052;28;20054;-69
2021/05/21 04:59:18;;;;;;;6.65;2.53;;;11.80;99.90;;;;;;5031422;28;20489;-71
2021/05/21 05:01:44;;;;;;;3.80;2.85;;;11.90;99.90;;;;;;5032170;28;20076;-70
2021/05/21 05:04:12;;;;;;;2.88;2.60;;;12.00;99.90;;;;;;5031871;28;20084;-73
2021/05/21 05:06:38;;;;;;;3.88;2.15;;;12.10;99.90;;;;;;5031125;28;20081;-69
2021/05/21 05:09:04;;;;;;;4.65;3.03;;;12.20;99.90;;;;;;5031810;28;20164;-70
2021/05/21 05:11:30;;;;;;;2.22;2.03;;;12.20;99.90;;;;;;5033645;28;20084;-70
2021/05/21 05:13:59;;;;;;;2.60;2.40;;;12.20;99.90;;;;;;5035117;28;20480;-71
2021/05/21 05:16:29;;;;;;;2.72;2.47;;;12.30;99.90;;;;;;5035693;28;20469;-67
2021/05/21 05:18:55;;;;;;;2.47;2.28;;;12.40;99.90;;;;;;5034341;28;20037;-70
2021/05/21 05:21:22;;;;;;;4.00;2.17;;;12.60;99.90;;;;;;5035355;28;20050;-72
2021/05/21 05:23:49;;;;;;;4.78;2.35;;;12.80;99.90;;;;;;5033394;28;20080;-69
2021/05/21 05:26:16;;;;;;;2.45;2.25;;;12.80;99.90;;;;;;5035138;28;20041;-70
2021/05/21 05:28:43;;;;;;;3.95;2.17;;;13.00;99.90;;;;;;5035365;28;20477;-74
2021/05/21 05:31:09;;;;;;;3.15;2.20;;;13.10;99.90;;;;;;5035726;28;20095;-71
2021/05/21 05:33:35;;;;;;;3.72;2.55;;;13.20;99.90;;;;;;5034756;28;20088;-71
2021/05/21 05:36:03;;;;;;;5.25;2.33;;;13.30;99.90;;;;;;5034385;28;20148;-72
2021/05/21 05:38:30;;;;;;;2.60;1.70;;;13.30;99.90;;;;;;5034838;28;20054;-72
2021/05/21 05:40:56;;;;;;;2.20;2.00;;;13.40;99.90;;;;;;5035289;28;20093;-71
2021/05/21 05:43:22;;;;;;;4.30;2.38;;;13.50;99.90;;;;;;5035588;28;20068;-71
2021/05/21 05:45:48;;;;;;;3.33;2.60;;;13.70;99.90;;;;;;5034946;28;20045;-72
2021/05/21 05:48:17;;;;;;;2.33;2.13;;;13.70;99.90;;;;;;5034202;28;20642;-72
2021/05/21 05:50:43;;;;;;;3.35;2.00;;;13.80;99.90;;;;;;5034256;28;20053;-70
2021/05/21 05:53:09;;;;;;;3.15;1.80;;;14.00;99.90;;;;;;5034813;28;20048;-70
2021/05/21 05:55:36;;;;;;;1.67;1.58;;;14.20;99.90;;;;;;5034794;28;20073;-73
2021/05/21 05:58:02;;;;;;;2.20;2.00;;;14.30;99.90;;;;;;5034469;28;20087;-74
2021/05/21 06:00:28;;;;;;;1.88;1.77;;;14.60;99.90;;;;;;5034606;28;20714;-69
2021/05/21 06:02:54;;;;;;;3.53;2.20;;;14.90;99.90;;;;;;5033979;28;20049;-71
2021/05/21 06:05:20;;;;;;;3.17;2.13;;;15.00;99.90;;;;;;5034892;28;20038;-70
2021/05/21 06:07:47;;;;;;;2.17;2.05;;;15.20;99.90;;;;;;5034490;28;20077;-70
2021/05/21 06:10:13;;;;;;;2.22;2.10;;;15.20;99.90;;;;;;5034595;28;20073;-72
2021/05/21 06:12:41;;;;;;;4.20;1.92;;;15.00;99.90;;;;;;5034408;28;20489;-72
2021/05/21 06:15:07;;;;;;;1.40;1.30;;;15.20;99.90;;;;;;5035929;28;20051;-71
2021/05/21 06:17:33;;;;;;;1.83;1.73;;;15.50;99.90;;;;;;5034422;28;20041;-73
2021/05/21 06:19:59;;;;;;;4.03;2.03;;;15.80;99.90;;;;;;5034178;28;20049;-71
2021/05/21 06:22:25;;;;;;;1.83;1.67;;;15.90;99.90;;;;;;5034132;28;20045;-72
2021/05/21 06:24:52;;;;;;;1.35;1.13;;;15.90;99.90;;;;;;5034187;28;20405;-71
2021/05/21 06:27:23;;;;;;;2.50;1.80;;;16.10;99.90;;;;;;5033416;28;20081;-71
2021/05/21 06:29:51;;;;;;;2.17;1.60;;;16.40;99.90;;;;;;5033823;28;20469;-71
2021/05/21 06:32:17;;;;;;;3.13;1.42;;;16.70;99.90;;;;;;5034402;28;20053;-72
2021/05/21 06:34:43;;;;;;;2.75;1.50;;;17.00;99.30;;;;;;5034361;28;20095;-72
2021/05/21 06:37:09;;;;;;;1.35;1.25;;;16.90;98.40;;;;;;5034328;28;20045;-72
2021/05/21 06:39:35;;;;;;;1.65;1.55;;;17.00;98.20;;;;;;5033938;28;20073;-71
2021/05/21 06:42:01;;;;;;;1.67;1.58;;;17.00;96.20;;;;;;5031147;28;20052;-71
2021/05/21 06:44:28;;;;;;;2.05;1.83;;;16.80;96.10;;;;;;5033900;28;20072;-71
2021/05/21 06:46:57;;;;;;;1.23;1.20;;;17.10;95.10;;;;;;5032703;28;20190;-71
2021/05/21 06:49:23;;;;;;;1.73;1.63;;;17.70;94.30;;;;;;5033719;28;20140;-72
2021/05/21 06:51:50;;;;;;;1.33;1.15;;;18.20;92.30;;;;;;5034143;28;20048;-72
2021/05/21 06:54:16;;;;;;;1.25;1.23;;;18.50;91.10;;;;;;5033980;28;20053;-71
2021/05/21 06:56:42;;;;;;;1.40;1.30;;;18.60;89.90;;;;;;5033457;28;20126;-72
2021/05/21 06:59:08;;;;;;;1.10;1.10;;;18.90;88.00;;;;;;5033490;28;20148;-72
2021/05/21 07:01:34;;;;;;;1.10;1.10;;;19.20;87.60;;;;;;5033823;28;20037;-72
2021/05/21 07:04:01;;;;;;;1.95;1.10;;;19.50;82.00;;;;;;5034404;28;20072;-72
2021/05/21 07:06:27;;;;;;;1.85;1.10;;;19.10;81.10;;;;;;5033316;28;20080;-72
2021/05/21 07:08:53;;;;;;;1.23;1.15;;;18.60;82.60;;;;;;5033457;28;20046;-72
2021/05/21 07:11:19;;;;;;;3.17;1.17;;;18.60;81.90;;;;;;5033785;28;20057;-71
2021/05/21 07:13:45;;;;;;;3.38;1.45;;;18.40;81.50;;;;;;5033182;28;20476;-71
2021/05/21 07:16:11;;;;;;;1.75;0.95;;;18.70;82.50;;;;;;5033534;28;20092;-72
2021/05/21 07:18:37;;;;;;;3.45;1.40;;;19.20;80.10;;;;;;5033472;28;20046;-70
2021/05/21 07:21:04;;;;;;;1.75;1.13;;;18.70;79.70;;;;;;5034186;28;20100;-71
2021/05/21 07:23:31;;;;;;;1.38;1.08;;;18.40;80.40;;;;;;5033985;28;20091;-72
2021/05/21 07:25:57;;;;;;;1.55;1.23;;;18.40;80.30;;;;;;5033642;28;20041;-71
2021/05/21 07:28:24;;;;;;;1.80;1.42;;;18.00;81.40;;;;;;5033328;28;20065;-73
2021/05/21 07:30:51;;;;;;;1.75;1.25;;;17.90;81.70;;;;;;5033979;28;20138;-72
2021/05/21 07:33:17;;;;;;;1.38;1.20;;;18.50;80.80;;;;;;5032566;28;20077;-72
2021/05/21 07:35:43;;;;;;;3.15;1.55;;;18.40;80.60;;;;;;5033475;28;20046;-70
2021/05/21 07:38:10;;;;;;;1.67;1.33;;;17.90;81.70;;;;;;5032988;28;20053;-70
2021/05/21 07:40:36;;;;;;;2.30;1.50;;;17.90;82.40;;;;;;5032640;28;20452;-71
2021/05/21 07:43:02;;;;;;;2.80;1.50;;;17.90;81.80;;;;;;5032838;28;20450;-72
2021/05/21 07:45:29;;;;;;;1.23;1.13;;;17.80;82.30;;;;;;5032230;28;20045;-71
2021/05/21 07:47:55;;;;;;;1.77;1.35;;;18.10;82.70;;;;;;5032418;28;20081;-71
2021/05/21 07:50:21;;;;;;;0.88;0.82;;;18.70;81.00;;;;;;5032259;28;20076;-71
2021/05/21 07:52:47;;;;;;;2.75;1.30;;;18.80;78.90;;;;;;5033799;28;20139;-71
2021/05/21 07:55:14;;;;;;;1.50;1.40;;;19.20;78.90;;;;;;5033187;28;20076;-72
2021/05/21 07:57:40;;;;;;;3.72;1.17;;;20.10;75.10;;;;;;5033388;28;20060;-68
2021/05/21 08:00:09;;;;;;;2.70;0.98;;;20.60;72.90;;;;;;5032297;28;20532;-70
2021/05/21 08:02:35;;;;;;;1.10;0.95;;;20.60;72.40;;;;;;5032858;28;20073;-70
2021/05/21 08:05:01;;;;;;;0.93;0.93;;;20.60;70.20;;;;;;5033375;28;20065;-73
2021/05/21 08:07:29;;;;;;;1.33;0.90;;;20.50;71.40;;;;;;5032103;28;20076;-74
2021/05/21 08:09:55;;;;;;;3.17;0.90;;;20.90;69.30;;;;;;5032516;28;20050;-75
2021/05/21 08:12:22;;;;;;;1.20;1.10;;;20.90;68.40;;;;;;5032798;28;20072;-73
2021/05/21 08:14:48;;;;;;;0.98;0.73;;;20.80;68.70;;;;;;5033866;28;20087;-72
2021/05/21 08:17:14;;;;;;;1.67;0.70;;;21.00;67.30;;;;;;5033672;28;20037;-72
2021/05/21 08:19:40;;;;;;;2.17;0.70;;;20.90;67.30;;;;;;5033928;28;20045;-71
2021/05/21 08:22:07;;;;;;;1.48;1.25;;;21.10;65.00;;;;;;5033720;28;20048;-72
2021/05/21 08:24:33;;;;;;;0.80;0.80;;;20.70;65.40;;;;;;5033516;28;20041;-72
2021/05/21 08:26:59;;;;;;;1.92;1.17;;;20.40;66.30;;;;;;5033950;28;20057;-73
2021/05/21 08:29:26;;;;;;;2.90;1.15;;;20.50;66.40;;;;;;5034431;28;20046;-71
2021/05/21 08:31:52;;;;;;;3.45;0.93;;;20.70;67.70;;;;;;5032612;28;20438;-73
2021/05/21 08:34:18;;;;;;;1.23;1.00;;;20.90;67.00;;;;;;5032328;28;20049;-73
2021/05/21 08:36:44;;;;;;;0.82;0.50;;;21.40;62.80;;;;;;5031353;28;20073;-71
2021/05/21 08:39:12;;;;;;;1.63;1.08;;;21.90;63.30;;;;;;5032137;28;20065;-73
2021/05/21 08:41:41;;;;;;;2.67;0.77;;;21.80;62.70;;;;;;5032080;28;20054;-72
2021/05/21 08:44:07;;;;;;;2.65;0.88;;;21.70;62.50;;;;;;5035132;28;20065;-72
2021/05/21 08:46:36;;;;;;;2.10;0.90;;;21.00;63.60;;;;;;5040084;28;20405;-71
2021/05/21 08:49:03;;;;;;;1.80;0.75;;;21.00;64.10;;;;;;5036295;28;20459;-71
2021/05/21 08:51:30;;;;;;;2.17;0.90;;;21.60;64.00;;;;;;5035544;28;20049;-71
2021/05/21 08:53:56;;;;;;;4.38;1.05;;;21.20;62.20;;;;;;5035318;28;20045;-73
2021/05/21 08:56:23;;;;;;;1.48;0.80;;;21.40;63.50;;;;;;5035149;28;20050;-70
2021/05/21 08:58:49;;;;;;;5.82;1.23;;;21.40;63.10;;;;;;5035348;28;20087;-72
2021/05/21 09:01:15;;;;;;;1.17;1.08;;;21.50;62.40;;;;;;5034830;28;20060;-70
2021/05/21 09:03:45;;;;;;;1.05;0.70;;;21.30;62.80;;;;;;5035220;28;20398;-71
2021/05/21 09:06:13;;;;;;;4.88;2.10;;;20.50;65.50;;;;;;5035698;28;20073;-71
2021/05/21 09:08:42;;;;;;;0.90;0.90;;;20.80;66.40;;;;;;5035112;28;20128;-71
2021/05/21 09:11:26;;;;;;;0.73;0.73;;;21.30;64.50;;;;;;5035506;28;20501;-71
2021/05/21 09:13:56;;;;;;;1.30;0.60;;;21.30;61.50;;;;;;5035313;28;20037;-72
2021/05/21 09:16:34;;;;;;;0.75;0.75;;;21.10;60.80;;;;;;5035467;28;20567;-71
2021/05/21 09:19:06;;;;;;;2.30;1.02;;;21.60;61.30;;;;;;5036067;28;20049;-71
2021/05/21 09:21:53;;;;;;;2.55;0.50;;;22.10;61.40;;;;;;5034721;28;20049;-71
2021/05/21 09:24:21;;;;;;;1.45;0.63;;;22.00;59.40;;;;;;5035464;28;20077;-71
2021/05/21 09:26:48;;;;;;;1.27;0.88;;;21.60;59.90;;;;;;5028949;28;20131;-68
2021/05/21 09:29:17;;;;;;;0.60;0.60;;;20.80;61.00;;;;;;5034669;28;20065;-69
2021/05/21 09:31:44;;;;;;;0.73;0.73;;;20.80;62.20;;;;;;5035061;28;20140;-68
2021/05/21 09:34:12;;;;;;;3.30;1.67;;;20.80;62.40;;;;;;5035311;28;20041;-69
2021/05/21 09:36:39;;;;;;;4.47;0.68;;;20.40;63.80;;;;;;5034444;28;20067;-69
2021/05/21 09:39:09;;;;;;;0.60;0.60;;;19.90;63.70;;;;;;5036962;28;20054;-68
2021/05/21 09:41:47;;;;;;;0.77;0.50;;;19.90;64.40;;;;;;5038073;28;20207;-68
2021/05/21 09:44:14;;;;;;;1.35;0.98;;;20.00;65.70;;;;;;5019786;28;20080;-69
2021/05/21 09:46:41;;;;;;;0.95;0.52;;;21.30;64.10;;;;;;5034409;28;20057;-69
2021/05/21 09:49:33;;;;;;;0.70;0.70;;;21.10;62.50;;;;;;5014663;28;20105;-69
2021/05/21 09:52:01;;;;;;;1.40;0.95;;;21.20;63.40;;;;;;5030653;28;20456;-69
2021/05/21 09:54:28;;;;;;;0.70;0.70;;;20.60;64.30;;;;;;5034466;28;20902;-69
2021/05/21 09:57:03;;;;;;;1.60;0.50;;;20.50;65.30;;;;;;5034108;28;20088;-69
2021/05/21 09:59:43;;;;;;;1.08;1.08;;;20.30;63.60;;;;;;5034691;28;20080;-69
2021/05/21 10:02:20;;;;;;;0.57;0.50;;;19.60;62.80;;;;;;5035778;28;20049;-69
2021/05/21 10:04:47;;;;;;;0.85;0.52;;;20.30;62.70;;;;;;5022060;28;20080;-70
2021/05/21 10:07:13;;;;;;;1.88;0.55;;;20.80;60.80;;;;;;5034977;28;20056;-70
2021/05/21 10:09:40;;;;;;;0.73;0.30;;;20.80;59.70;;;;;;5034572;28;20527;-68
2021/05/21 10:12:07;;;;;;;0.65;0.47;;;21.60;59.20;;;;;;5034625;28;20042;-68
2021/05/21 10:14:33;;;;;;;2.97;0.90;;;21.90;58.60;;;;;;5034617;28;20045;-69
2021/05/21 10:17:01;;;;;;;1.42;1.20;;;22.40;56.90;;;;;;5034139;28;20056;-68
2021/05/21 10:19:28;;;;;;;1.13;0.63;;;22.40;57.20;;;;;;5034126;28;20065;-69
2021/05/21 10:21:55;;;;;;;0.50;0.50;;;21.50;59.30;;;;;;5034268;28;20084;-69
2021/05/21 10:24:24;;;;;;;0.55;0.55;;;21.80;59.30;;;;;;5034712;28;20065;-70
2021/05/21 10:26:53;;;;;;;2.17;0.60;;;22.00;58.00;;;;;;5033965;28;20130;-68
2021/05/21 10:29:22;;;;;;;0.50;0.50;;;22.00;57.10;;;;;;5034066;28;20045;-70
2021/05/21 10:31:50;;;;;;;1.45;0.50;;;22.50;56.30;;;;;;5034429;28;20107;-69
2021/05/21 10:34:17;;;;;;;0.50;0.50;;;21.80;56.10;;;;;;5034295;28;20045;-74
2021/05/21 10:36:44;;;;;;;0.55;0.50;;;22.00;58.10;;;;;;5033876;28;20056;-68
2021/05/21 10:39:14;;;;;;;0.90;0.50;;;22.40;57.10;;;;;;5033808;28;20069;-69
2021/05/21 10:41:49;;;;;;;0.40;0.40;;;22.40;54.80;;;;;;5033641;28;20080;-69
2021/05/21 10:44:20;;;;;;;0.70;0.70;;;22.90;55.10;;;;;;5033723;28;20057;-68
2021/05/21 10:46:48;;;;;;;2.10;0.40;;;22.20;56.80;;;;;;5033759;28;20382;-69
2021/05/21 10:49:24;;;;;;;2.92;0.55;;;22.20;55.20;;;;;;5033815;28;20056;-69
2021/05/21 10:51:52;;;;;;;2.60;1.00;;;22.20;56.50;;;;;;5033178;28;20049;-69
2021/05/21 10:54:31;;;;;;;0.82;0.68;;;22.00;55.80;;;;;;5033039;28;20065;-73
2021/05/21 10:57:09;;;;;;;5.20;1.42;;;21.60;56.50;;;;;;5032652;28;20053;-71
2021/05/21 10:59:58;;;;;;;1.55;0.60;;;22.60;56.10;;;;;;5032749;28;20054;-71
2021/05/21 11:02:25;;;;;;;1.05;0.52;;;22.60;53.90;;;;;;5028863;28;20053;-71
2021/05/21 11:04:52;;;;;;;1.35;0.50;;;23.40;54.50;;;;;;5033467;28;20052;-69
2021/05/21 11:07:32;;;;;;;1.17;0.32;;;23.60;53.30;;;;;;5032545;28;20077;-69
2021/05/21 11:09:59;;;;;;;1.30;0.40;;;24.20;50.60;;;;;;5031858;28;20048;-71
2021/05/21 11:12:43;;;;;;;4.90;0.60;;;23.30;51.10;;;;;;5033273;28;20544;-71
2021/05/21 11:15:36;;;;;;;1.45;0.50;;;23.00;50.60;;;;;;5033379;28;20056;-73
2021/05/21 11:18:24;;;;;;;0.47;0.32;;;23.80;50.60;;;;;;5033521;28;20515;-73
2021/05/21 11:21:13;;;;;;;0.47;0.47;;;23.60;51.60;;;;;;5032690;28;20053;-69
2021/05/21 11:23:41;;;;;;;1.80;0.45;;;23.30;50.90;;;;;;5030526;28;20073;-72
2021/05/21 11:26:26;;;;;;;0.43;0.43;;;23.00;52.50;;;;;;5033055;28;20521;-70
2021/05/21 11:28:55;;;;;;;2.92;0.55;;;22.50;52.90;;;;;;5032924;28;20046;-75
2021/05/21 11:31:23;;;;;;;3.03;0.70;;;22.60;55.30;;;;;;5033476;28;20119;-74
2021/05/21 11:33:51;;;;;;;0.32;0.32;;;23.50;51.30;;;;;;5033809;28;20053;-74
2021/05/21 11:36:19;;;;;;;2.10;0.73;;;22.40;52.70;;;;;;5033181;28;20041;-75
2021/05/21 11:38:46;;;;;;;2.30;0.80;;;21.90;53.60;;;;;;5033389;28;20111;-71
2021/05/21 11:41:13;;;;;;;2.50;0.50;;;21.40;55.30;;;;;;5033928;28;20073;-72
2021/05/21 11:43:42;;;;;;;0.95;0.43;;;21.80;55.20;;;;;;5034694;28;20394;-71
2021/05/21 11:46:14;;;;;;;0.63;0.63;;;22.60;53.00;;;;;;5032564;28;20066;-72
2021/05/21 11:48:41;;;;;;;1.08;0.70;;;21.90;52.30;;;;;;5032437;28;20084;-73
2021/05/21 11:51:13;;;;;;;0.60;0.60;;;21.40;53.80;;;;;;5031941;28;20049;-73
2021/05/21 11:53:47;;;;;;;1.10;0.73;;;21.70;53.70;;;;;;5032266;28;20052;-73
2021/05/21 11:56:14;;;;;;;0.60;0.50;;;21.40;54.30;;;;;;5032114;28;20046;-73
2021/05/21 11:58:41;;;;;;;2.42;0.80;;;21.70;54.30;;;;;;5034761;28;20049;-75
2021/05/21 12:01:07;;;;;;;3.50;0.88;;;21.80;53.70;;;;;;5033540;28;20413;-72
2021/05/21 12:03:37;;;;;;;0.70;0.70;;;21.30;54.70;;;;;;5032327;28;20069;-73
2021/05/21 12:06:03;;;;;;;0.65;0.43;;;20.80;56.20;;;;;;5031828;28;20132;-73
2021/05/21 12:08:29;;;;;;;15.00;1.48;;;20.60;57.00;;;;;;5031257;28;20077;-71
2021/05/21 12:10:56;;;;;;;0.65;0.60;;;20.30;57.60;;;;;;5031636;28;20143;-69
2021/05/21 12:13:22;;;;;;;0.70;0.63;;;20.20;57.70;;;;;;5032213;28;20069;-73
2021/05/21 12:15:49;;;;;;;1.15;0.60;;;20.70;57.90;;;;;;5031398;28;20077;-72
2021/05/21 12:18:15;;;;;;;0.40;0.40;;;21.60;55.70;;;;;;5032487;28;20045;-73
2021/05/21 12:20:51;;;;;;;2.28;0.75;;;22.00;54.60;;;;;;5034802;28;20065;-73
2021/05/21 12:23:18;;;;;;;3.70;0.73;;;22.30;53.80;;;;;;5036669;28;20050;-72
2021/05/21 12:25:44;;;;;;;2.05;0.85;;;22.00;54.90;;;;;;5036303;28;20049;-73
2021/05/21 12:28:11;;;;;;;1.00;0.50;;;22.00;54.20;;;;;;5036091;28;20104;-73
2021/05/21 12:30:37;;;;;;;0.43;0.40;;;22.00;55.00;;;;;;5035624;28;20092;-73
2021/05/21 12:33:07;;;;;;;0.40;0.40;;;22.30;53.10;;;;;;5037639;28;20056;-72
2021/05/21 12:35:38;;;;;;;2.50;0.80;;;21.80;53.60;;;;;;5035641;28;20046;-73
2021/05/21 12:38:05;;;;;;;2.45;0.73;;;21.40;55.60;;;;;;5036291;28;20076;-72
2021/05/21 12:40:31;;;;;;;0.77;0.60;;;21.60;56.00;;;;;;5036198;28;20444;-73
2021/05/21 12:42:57;;;;;;;1.95;0.60;;;21.50;55.80;;;;;;5036295;28;20049;-72
2021/05/21 12:45:23;;;;;;;1.85;0.85;;;21.10;56.00;;;;;;5035926;28;20042;-72
2021/05/21 12:47:52;;;;;;;0.40;0.40;;;21.20;57.10;;;;;;5035972;28;20085;-72
2021/05/21 12:50:20;;;;;;;1.60;0.68;;;20.80;57.20;;;;;;5035660;28;20413;-72